sensor_id;sensor_type;location;lat;lon;timestamp;temperature;humidity
10233;DHT22;5161;48.174;11.756;2023-11-19T00:00:34;7.70;84.70
10233;DHT22;5161;48.174;11.756;2023-11-19T00:03:01;7.70;85.40
10233;DHT22;5161;48.174;11.756;2023-11-19T00:05:27;7.70;84.70
10233;DHT22;5161;48.174;11.756;2023-11-19T00:07:53;7.70;85.00
10233;DHT22;5161;48.174;11.756;2023-11-19T00:10:19;7.80;85.10
10233;DHT22;5161;48.174;11.756;2023-11-19T00:12:49;7.80;85.10
10233;DHT22;5161;48.174;11.756;2023-11-19T00:15:15;7.90;85.40
10233;DHT22;5161;48.174;11.756;2023-11-19T00:17:45;7.90;85.30
10233;DHT22;5161;48.174;11.756;2023-11-19T00:20:12;8.00;85.30
10233;DHT22;5161;48.174;11.756;2023-11-19T00:22:37;7.90;85.20
10233;DHT22;5161;48.174;11.756;2023-11-19T00:25:04;7.90;86.10
10233;DHT22;5161;48.174;11.756;2023-11-19T00:27:30;7.90;85.90
10233;DHT22;5161;48.174;11.756;2023-11-19T00:29:56;8.00;85.70
10233;DHT22;5161;48.174;11.756;2023-11-19T00:32:22;8.00;85.70
10233;DHT22;5161;48.174;11.756;2023-11-19T00:34:48;8.00;85.60
10233;DHT22;5161;48.174;11.756;2023-11-19T00:37:14;8.00;85.70
10233;DHT22;5161;48.174;11.756;2023-11-19T00:39:41;8.00;85.90
10233;DHT22;5161;48.174;11.756;2023-11-19T00:42:07;8.00;86.00
10233;DHT22;5161;48.174;11.756;2023-11-19T00:44:33;8.00;86.30
10233;DHT22;5161;48.174;11.756;2023-11-19T00:46:58;8.00;86.20
10233;DHT22;5161;48.174;11.756;2023-11-19T00:49:25;8.10;86.40
10233;DHT22;5161;48.174;11.756;2023-11-19T00:51:51;8.10;86.40
10233;DHT22;5161;48.174;11.756;2023-11-19T00:54:16;8.10;86.60
10233;DHT22;5161;48.174;11.756;2023-11-19T00:56:42;8.00;86.70
10233;DHT22;5161;48.174;11.756;2023-11-19T00:59:08;8.10;86.90
10233;DHT22;5161;48.174;11.756;2023-11-19T01:01:33;8.10;87.10
10233;DHT22;5161;48.174;11.756;2023-11-19T01:03:59;8.10;87.10
10233;DHT22;5161;48.174;11.756;2023-11-19T01:06:32;8.10;87.10
10233;DHT22;5161;48.174;11.756;2023-11-19T01:08:58;8.10;87.60
10233;DHT22;5161;48.174;11.756;2023-11-19T01:11:25;8.10;87.60
10233;DHT22;5161;48.174;11.756;2023-11-19T01:13:51;8.20;87.80
10233;DHT22;5161;48.174;11.756;2023-11-19T01:16:18;8.10;87.90
10233;DHT22;5161;48.174;11.756;2023-11-19T01:18:44;8.10;88.20
10233;DHT22;5161;48.174;11.756;2023-11-19T01:21:10;8.10;88.10
10233;DHT22;5161;48.174;11.756;2023-11-19T01:23:36;8.10;88.10
10233;DHT22;5161;48.174;11.756;2023-11-19T01:26:02;8.10;88.50
10233;DHT22;5161;48.174;11.756;2023-11-19T01:28:28;8.20;88.70
10233;DHT22;5161;48.174;11.756;2023-11-19T01:30:53;8.20;88.70
10233;DHT22;5161;48.174;11.756;2023-11-19T01:33:19;8.20;88.80
10233;DHT22;5161;48.174;11.756;2023-11-19T01:35:45;8.20;89.50
10233;DHT22;5161;48.174;11.756;2023-11-19T01:38:10;8.20;89.70
10233;DHT22;5161;48.174;11.756;2023-11-19T01:40:36;8.20;89.70
10233;DHT22;5161;48.174;11.756;2023-11-19T01:43:03;8.30;90.10
10233;DHT22;5161;48.174;11.756;2023-11-19T01:45:30;8.30;90.10
10233;DHT22;5161;48.174;11.756;2023-11-19T01:47:57;8.20;90.10
10233;DHT22;5161;48.174;11.756;2023-11-19T01:50:23;8.20;90.40
10233;DHT22;5161;48.174;11.756;2023-11-19T01:52:53;8.20;90.60
10233;DHT22;5161;48.174;11.756;2023-11-19T01:55:20;8.20;90.60
10233;DHT22;5161;48.174;11.756;2023-11-19T01:57:48;8.30;90.70
10233;DHT22;5161;48.174;11.756;2023-11-19T02:00:15;8.30;90.70
10233;DHT22;5161;48.174;11.756;2023-11-19T02:02:42;8.40;90.70
10233;DHT22;5161;48.174;11.756;2023-11-19T02:05:09;8.30;90.70
10233;DHT22;5161;48.174;11.756;2023-11-19T02:07:35;8.30;90.90
10233;DHT22;5161;48.174;11.756;2023-11-19T02:10:00;8.20;90.90
10233;DHT22;5161;48.174;11.756;2023-11-19T02:12:26;8.30;91.10
10233;DHT22;5161;48.174;11.756;2023-11-19T02:14:59;8.30;91.20
10233;DHT22;5161;48.174;11.756;2023-11-19T02:17:26;8.40;91.20
10233;DHT22;5161;48.174;11.756;2023-11-19T02:19:52;8.40;91.40
10233;DHT22;5161;48.174;11.756;2023-11-19T02:22:18;8.40;91.40
10233;DHT22;5161;48.174;11.756;2023-11-19T02:24:45;8.40;91.40
10233;DHT22;5161;48.174;11.756;2023-11-19T02:27:19;8.50;91.50
10233;DHT22;5161;48.174;11.756;2023-11-19T02:29:49;8.50;91.60
10233;DHT22;5161;48.174;11.756;2023-11-19T02:32:16;8.40;91.90
10233;DHT22;5161;48.174;11.756;2023-11-19T02:34:42;8.40;91.90
10233;DHT22;5161;48.174;11.756;2023-11-19T02:37:07;8.40;91.90
10233;DHT22;5161;48.174;11.756;2023-11-19T02:39:33;8.40;91.90
10233;DHT22;5161;48.174;11.756;2023-11-19T02:41:59;8.40;92.00
10233;DHT22;5161;48.174;11.756;2023-11-19T02:44:25;8.50;92.20
10233;DHT22;5161;48.174;11.756;2023-11-19T02:46:53;8.50;92.20
10233;DHT22;5161;48.174;11.756;2023-11-19T02:49:19;8.50;92.20
10233;DHT22;5161;48.174;11.756;2023-11-19T02:51:44;8.50;92.50
10233;DHT22;5161;48.174;11.756;2023-11-19T02:54:10;8.50;92.60
10233;DHT22;5161;48.174;11.756;2023-11-19T02:56:36;8.50;92.60
10233;DHT22;5161;48.174;11.756;2023-11-19T02:59:02;8.60;92.80
10233;DHT22;5161;48.174;11.756;2023-11-19T03:01:40;8.50;92.90
10233;DHT22;5161;48.174;11.756;2023-11-19T03:04:09;8.50;93.00
10233;DHT22;5161;48.174;11.756;2023-11-19T03:06:37;8.50;93.10
10233;DHT22;5161;48.174;11.756;2023-11-19T03:09:03;8.60;93.00
10233;DHT22;5161;48.174;11.756;2023-11-19T03:11:35;8.70;93.10
10233;DHT22;5161;48.174;11.756;2023-11-19T03:14:00;8.70;93.20
10233;DHT22;5161;48.174;11.756;2023-11-19T03:16:28;8.70;93.20
10233;DHT22;5161;48.174;11.756;2023-11-19T03:18:54;8.70;93.30
10233;DHT22;5161;48.174;11.756;2023-11-19T03:21:27;8.70;93.30
10233;DHT22;5161;48.174;11.756;2023-11-19T03:23:53;8.80;93.40
10233;DHT22;5161;48.174;11.756;2023-11-19T03:26:18;8.80;93.40
10233;DHT22;5161;48.174;11.756;2023-11-19T03:28:44;8.90;93.50
10233;DHT22;5161;48.174;11.756;2023-11-19T03:31:10;8.90;93.40
10233;DHT22;5161;48.174;11.756;2023-11-19T03:33:35;8.90;93.50
10233;DHT22;5161;48.174;11.756;2023-11-19T03:36:01;9.00;93.50
10233;DHT22;5161;48.174;11.756;2023-11-19T03:38:26;9.00;93.50
10233;DHT22;5161;48.174;11.756;2023-11-19T03:40:52;9.00;93.60
10233;DHT22;5161;48.174;11.756;2023-11-19T03:43:18;9.00;93.60
10233;DHT22;5161;48.174;11.756;2023-11-19T03:45:44;9.00;93.70
10233;DHT22;5161;48.174;11.756;2023-11-19T03:48:10;9.00;93.70
10233;DHT22;5161;48.174;11.756;2023-11-19T03:50:35;9.10;93.70
10233;DHT22;5161;48.174;11.756;2023-11-19T03:53:01;9.10;93.70
10233;DHT22;5161;48.174;11.756;2023-11-19T03:55:28;9.00;93.80
10233;DHT22;5161;48.174;11.756;2023-11-19T03:57:54;9.10;93.80
10233;DHT22;5161;48.174;11.756;2023-11-19T04:00:20;9.10;93.90
10233;DHT22;5161;48.174;11.756;2023-11-19T04:02:46;9.10;93.90
10233;DHT22;5161;48.174;11.756;2023-11-19T04:05:12;9.10;94.00
10233;DHT22;5161;48.174;11.756;2023-11-19T04:07:38;9.10;93.90
10233;DHT22;5161;48.174;11.756;2023-11-19T04:10:04;9.10;94.10
10233;DHT22;5161;48.174;11.756;2023-11-19T04:12:31;9.10;94.20
10233;DHT22;5161;48.174;11.756;2023-11-19T04:14:56;9.20;94.30
10233;DHT22;5161;48.174;11.756;2023-11-19T04:17:22;9.20;94.30
10233;DHT22;5161;48.174;11.756;2023-11-19T04:19:48;9.20;94.40
10233;DHT22;5161;48.174;11.756;2023-11-19T04:22:14;9.20;94.30
10233;DHT22;5161;48.174;11.756;2023-11-19T04:24:39;9.20;94.40
10233;DHT22;5161;48.174;11.756;2023-11-19T04:27:06;9.20;94.50
10233;DHT22;5161;48.174;11.756;2023-11-19T04:29:31;9.20;94.50
10233;DHT22;5161;48.174;11.756;2023-11-19T04:31:57;9.20;94.50
10233;DHT22;5161;48.174;11.756;2023-11-19T04:34:23;9.30;94.60
10233;DHT22;5161;48.174;11.756;2023-11-19T04:36:49;9.30;94.60
10233;DHT22;5161;48.174;11.756;2023-11-19T04:39:15;9.30;94.60
10233;DHT22;5161;48.174;11.756;2023-11-19T04:41:50;9.30;94.70
10233;DHT22;5161;48.174;11.756;2023-11-19T04:44:18;9.30;94.90
10233;DHT22;5161;48.174;11.756;2023-11-19T04:46:44;9.30;94.90
10233;DHT22;5161;48.174;11.756;2023-11-19T04:49:11;9.30;95.30
10233;DHT22;5161;48.174;11.756;2023-11-19T04:51:45;9.30;95.20
10233;DHT22;5161;48.174;11.756;2023-11-19T04:54:12;9.30;95.40
10233;DHT22;5161;48.174;11.756;2023-11-19T04:56:38;9.30;95.40
10233;DHT22;5161;48.174;11.756;2023-11-19T04:59:04;9.30;95.50
10233;DHT22;5161;48.174;11.756;2023-11-19T05:01:34;9.40;95.60
10233;DHT22;5161;48.174;11.756;2023-11-19T05:04:00;9.40;95.50
10233;DHT22;5161;48.174;11.756;2023-11-19T05:06:27;9.40;95.50
10233;DHT22;5161;48.174;11.756;2023-11-19T05:08:53;9.40;95.50
10233;DHT22;5161;48.174;11.756;2023-11-19T05:11:19;9.40;95.60
10233;DHT22;5161;48.174;11.756;2023-11-19T05:13:45;9.50;95.70
10233;DHT22;5161;48.174;11.756;2023-11-19T05:16:11;9.50;95.70
10233;DHT22;5161;48.174;11.756;2023-11-19T05:18:39;9.50;95.80
10233;DHT22;5161;48.174;11.756;2023-11-19T05:21:05;9.60;95.80
10233;DHT22;5161;48.174;11.756;2023-11-19T05:23:32;9.60;96.00
10233;DHT22;5161;48.174;11.756;2023-11-19T05:25:59;9.60;97.00
10233;DHT22;5161;48.174;11.756;2023-11-19T05:28:25;9.60;97.30
10233;DHT22;5161;48.174;11.756;2023-11-19T05:30:51;9.70;97.80
10233;DHT22;5161;48.174;11.756;2023-11-19T05:33:17;9.70;98.50
10233;DHT22;5161;48.174;11.756;2023-11-19T05:35:42;9.80;98.50
10233;DHT22;5161;48.174;11.756;2023-11-19T05:38:08;9.80;98.60
10233;DHT22;5161;48.174;11.756;2023-11-19T05:40:35;9.90;99.50
10233;DHT22;5161;48.174;11.756;2023-11-19T05:43:00;9.90;99.50
10233;DHT22;5161;48.174;11.756;2023-11-19T05:45:26;9.90;99.70
10233;DHT22;5161;48.174;11.756;2023-11-19T05:47:52;9.90;99.70
10233;DHT22;5161;48.174;11.756;2023-11-19T05:50:18;10.00;99.20
10233;DHT22;5161;48.174;11.756;2023-11-19T05:52:43;10.00;99.60
10233;DHT22;5161;48.174;11.756;2023-11-19T05:55:09;10.00;99.50
10233;DHT22;5161;48.174;11.756;2023-11-19T05:57:39;10.00;99.60
10233;DHT22;5161;48.174;11.756;2023-11-19T06:00:06;10.10;99.90
10233;DHT22;5161;48.174;11.756;2023-11-19T06:02:33;10.10;99.90
10233;DHT22;5161;48.174;11.756;2023-11-19T06:04:59;10.00;99.90
10233;DHT22;5161;48.174;11.756;2023-11-19T06:07:25;10.10;99.90
10233;DHT22;5161;48.174;11.756;2023-11-19T06:09:51;10.10;99.90
10233;DHT22;5161;48.174;11.756;2023-11-19T06:12:17;10.10;99.90
10233;DHT22;5161;48.174;11.756;2023-11-19T06:14:43;10.10;99.90
10233;DHT22;5161;48.174;11.756;2023-11-19T06:17:08;10.10;99.90
10233;DHT22;5161;48.174;11.756;2023-11-19T06:19:36;10.10;99.90
10233;DHT22;5161;48.174;11.756;2023-11-19T06:22:03;10.20;99.90
10233;DHT22;5161;48.174;11.756;2023-11-19T06:24:29;10.10;99.90
10233;DHT22;5161;48.174;11.756;2023-11-19T06:26:54;10.20;99.90
10233;DHT22;5161;48.174;11.756;2023-11-19T06:29:20;10.20;99.90
10233;DHT22;5161;48.174;11.756;2023-11-19T06:31:46;10.20;99.90
10233;DHT22;5161;48.174;11.756;2023-11-19T06:34:14;10.20;99.90
10233;DHT22;5161;48.174;11.756;2023-11-19T06:36:40;10.20;99.90
10233;DHT22;5161;48.174;11.756;2023-11-19T06:39:05;10.20;99.90
10233;DHT22;5161;48.174;11.756;2023-11-19T06:41:31;10.30;99.90
10233;DHT22;5161;48.174;11.756;2023-11-19T06:43:57;10.30;99.90
10233;DHT22;5161;48.174;11.756;2023-11-19T06:46:23;10.30;99.90
10233;DHT22;5161;48.174;11.756;2023-11-19T06:48:48;10.30;99.90
10233;DHT22;5161;48.174;11.756;2023-11-19T06:51:14;10.30;99.90
10233;DHT22;5161;48.174;11.756;2023-11-19T06:53:39;10.30;99.90
10233;DHT22;5161;48.174;11.756;2023-11-19T06:56:17;10.30;99.90
10233;DHT22;5161;48.174;11.756;2023-11-19T06:58:42;10.30;99.90
10233;DHT22;5161;48.174;11.756;2023-11-19T07:01:08;10.40;99.90
10233;DHT22;5161;48.174;11.756;2023-11-19T07:03:35;10.40;99.90
10233;DHT22;5161;48.174;11.756;2023-11-19T07:06:00;10.40;99.90
10233;DHT22;5161;48.174;11.756;2023-11-19T07:08:26;10.40;99.90
10233;DHT22;5161;48.174;11.756;2023-11-19T07:10:52;10.40;99.90
10233;DHT22;5161;48.174;11.756;2023-11-19T07:13:18;10.40;99.90
10233;DHT22;5161;48.174;11.756;2023-11-19T07:15:44;10.40;99.90
10233;DHT22;5161;48.174;11.756;2023-11-19T07:18:10;10.50;99.90
10233;DHT22;5161;48.174;11.756;2023-11-19T07:20:37;10.50;99.90
10233;DHT22;5161;48.174;11.756;2023-11-19T07:23:03;10.50;99.90
10233;DHT22;5161;48.174;11.756;2023-11-19T07:25:29;10.50;99.90
10233;DHT22;5161;48.174;11.756;2023-11-19T07:27:55;10.50;99.90
10233;DHT22;5161;48.174;11.756;2023-11-19T07:30:22;10.60;99.90
10233;DHT22;5161;48.174;11.756;2023-11-19T07:32:47;10.60;99.90
10233;DHT22;5161;48.174;11.756;2023-11-19T07:35:14;10.60;99.90
10233;DHT22;5161;48.174;11.756;2023-11-19T07:37:41;10.60;99.90
10233;DHT22;5161;48.174;11.756;2023-11-19T07:40:07;10.60;99.90
10233;DHT22;5161;48.174;11.756;2023-11-19T07:42:33;10.60;99.90
10233;DHT22;5161;48.174;11.756;2023-11-19T07:44:59;10.70;99.90
10233;DHT22;5161;48.174;11.756;2023-11-19T07:47:24;10.70;99.90
10233;DHT22;5161;48.174;11.756;2023-11-19T07:49:50;10.70;99.90
10233;DHT22;5161;48.174;11.756;2023-11-19T07:52:16;10.70;99.90
10233;DHT22;5161;48.174;11.756;2023-11-19T07:54:42;10.70;99.90
10233;DHT22;5161;48.174;11.756;2023-11-19T07:57:07;10.80;99.90
10233;DHT22;5161;48.174;11.756;2023-11-19T07:59:33;10.80;99.90
10233;DHT22;5161;48.174;11.756;2023-11-19T08:01:59;10.80;99.90
10233;DHT22;5161;48.174;11.756;2023-11-19T08:04:24;10.80;99.90
10233;DHT22;5161;48.174;11.756;2023-11-19T08:06:50;10.80;99.90
10233;DHT22;5161;48.174;11.756;2023-11-19T08:09:16;10.90;99.90
10233;DHT22;5161;48.174;11.756;2023-11-19T08:11:43;10.90;99.90
10233;DHT22;5161;48.174;11.756;2023-11-19T08:14:08;10.90;99.90
10233;DHT22;5161;48.174;11.756;2023-11-19T08:16:34;10.90;99.90
10233;DHT22;5161;48.174;11.756;2023-11-19T08:19:00;10.90;99.90
10233;DHT22;5161;48.174;11.756;2023-11-19T08:21:25;10.90;99.90
10233;DHT22;5161;48.174;11.756;2023-11-19T08:23:52;10.90;99.90
10233;DHT22;5161;48.174;11.756;2023-11-19T08:26:18;11.00;99.90
10233;DHT22;5161;48.174;11.756;2023-11-19T08:28:43;11.00;99.90
10233;DHT22;5161;48.174;11.756;2023-11-19T08:31:09;11.00;99.90
10233;DHT22;5161;48.174;11.756;2023-11-19T08:33:34;11.00;99.90
10233;DHT22;5161;48.174;11.756;2023-11-19T08:36:01;11.00;99.90
10233;DHT22;5161;48.174;11.756;2023-11-19T08:38:26;11.10;99.90
10233;DHT22;5161;48.174;11.756;2023-11-19T08:40:52;11.10;99.90
10233;DHT22;5161;48.174;11.756;2023-11-19T08:43:17;11.10;99.90
10233;DHT22;5161;48.174;11.756;2023-11-19T08:45:43;11.10;99.90
10233;DHT22;5161;48.174;11.756;2023-11-19T08:48:09;11.10;99.90
10233;DHT22;5161;48.174;11.756;2023-11-19T08:50:34;11.10;99.90
10233;DHT22;5161;48.174;11.756;2023-11-19T08:53:00;11.20;99.90
10233;DHT22;5161;48.174;11.756;2023-11-19T08:55:25;11.20;99.90
10233;DHT22;5161;48.174;11.756;2023-11-19T08:57:51;11.20;99.90
10233;DHT22;5161;48.174;11.756;2023-11-19T09:00:17;11.20;99.90
10233;DHT22;5161;48.174;11.756;2023-11-19T09:02:43;11.20;99.90
10233;DHT22;5161;48.174;11.756;2023-11-19T09:05:09;11.20;99.90
10233;DHT22;5161;48.174;11.756;2023-11-19T09:07:34;11.20;99.90
10233;DHT22;5161;48.174;11.756;2023-11-19T09:10:00;11.20;99.90
10233;DHT22;5161;48.174;11.756;2023-11-19T09:12:26;11.20;99.90
10233;DHT22;5161;48.174;11.756;2023-11-19T09:14:51;11.20;99.90
10233;DHT22;5161;48.174;11.756;2023-11-19T09:17:17;11.30;99.90
10233;DHT22;5161;48.174;11.756;2023-11-19T09:19:45;11.30;99.90
10233;DHT22;5161;48.174;11.756;2023-11-19T09:22:11;11.30;99.90
10233;DHT22;5161;48.174;11.756;2023-11-19T09:24:36;11.30;99.90
10233;DHT22;5161;48.174;11.756;2023-11-19T09:27:02;11.30;99.90
10233;DHT22;5161;48.174;11.756;2023-11-19T09:29:27;11.40;99.90
10233;DHT22;5161;48.174;11.756;2023-11-19T09:31:53;11.40;99.90
10233;DHT22;5161;48.174;11.756;2023-11-19T09:34:19;11.40;99.90
10233;DHT22;5161;48.174;11.756;2023-11-19T09:36:45;11.50;99.90
10233;DHT22;5161;48.174;11.756;2023-11-19T09:39:11;11.50;99.90
10233;DHT22;5161;48.174;11.756;2023-11-19T09:41:38;11.50;99.90
10233;DHT22;5161;48.174;11.756;2023-11-19T09:44:04;11.50;99.90
10233;DHT22;5161;48.174;11.756;2023-11-19T09:46:30;11.60;99.90
10233;DHT22;5161;48.174;11.756;2023-11-19T09:48:57;11.60;99.90
10233;DHT22;5161;48.174;11.756;2023-11-19T09:51:23;11.60;99.90
10233;DHT22;5161;48.174;11.756;2023-11-19T09:53:49;11.60;99.90
10233;DHT22;5161;48.174;11.756;2023-11-19T09:56:15;11.70;99.90
10233;DHT22;5161;48.174;11.756;2023-11-19T09:58:42;11.60;99.90
10233;DHT22;5161;48.174;11.756;2023-11-19T10:01:08;11.60;99.90
10233;DHT22;5161;48.174;11.756;2023-11-19T10:03:37;11.60;99.90
10233;DHT22;5161;48.174;11.756;2023-11-19T10:06:06;11.60;99.90
10233;DHT22;5161;48.174;11.756;2023-11-19T10:08:33;11.60;99.90
10233;DHT22;5161;48.174;11.756;2023-11-19T10:10:59;11.70;99.90
10233;DHT22;5161;48.174;11.756;2023-11-19T10:13:28;11.70;99.90
10233;DHT22;5161;48.174;11.756;2023-11-19T10:15:55;11.70;99.90
10233;DHT22;5161;48.174;11.756;2023-11-19T10:18:27;11.80;99.90
10233;DHT22;5161;48.174;11.756;2023-11-19T10:20:53;11.90;99.90
10233;DHT22;5161;48.174;11.756;2023-11-19T10:23:20;11.90;99.90
10233;DHT22;5161;48.174;11.756;2023-11-19T10:25:46;11.90;99.90
10233;DHT22;5161;48.174;11.756;2023-11-19T10:28:11;11.90;99.90
10233;DHT22;5161;48.174;11.756;2023-11-19T10:30:42;11.90;99.90
10233;DHT22;5161;48.174;11.756;2023-11-19T10:33:12;12.00;99.90
10233;DHT22;5161;48.174;11.756;2023-11-19T10:35:56;12.00;99.90
10233;DHT22;5161;48.174;11.756;2023-11-19T10:38:25;12.10;99.90
10233;DHT22;5161;48.174;11.756;2023-11-19T10:40:52;12.10;99.90
10233;DHT22;5161;48.174;11.756;2023-11-19T10:43:19;12.20;99.90
10233;DHT22;5161;48.174;11.756;2023-11-19T10:45:45;12.10;99.90
10233;DHT22;5161;48.174;11.756;2023-11-19T10:48:11;12.20;99.90
10233;DHT22;5161;48.174;11.756;2023-11-19T10:50:39;12.20;99.90
10233;DHT22;5161;48.174;11.756;2023-11-19T10:53:06;12.30;99.90
10233;DHT22;5161;48.174;11.756;2023-11-19T10:55:34;12.30;99.90
10233;DHT22;5161;48.174;11.756;2023-11-19T10:58:09;12.30;99.90
10233;DHT22;5161;48.174;11.756;2023-11-19T11:00:47;12.30;99.90
10233;DHT22;5161;48.174;11.756;2023-11-19T11:03:24;12.50;99.90
10233;DHT22;5161;48.174;11.756;2023-11-19T11:05:51;12.50;99.90
10233;DHT22;5161;48.174;11.756;2023-11-19T11:08:18;12.50;99.90
10233;DHT22;5161;48.174;11.756;2023-11-19T11:10:57;12.50;99.90
10233;DHT22;5161;48.174;11.756;2023-11-19T11:13:26;12.50;99.90
10233;DHT22;5161;48.174;11.756;2023-11-19T11:15:57;12.50;99.90
10233;DHT22;5161;48.174;11.756;2023-11-19T11:18:26;12.50;99.90
10233;DHT22;5161;48.174;11.756;2023-11-19T11:21:20;12.50;99.90
10233;DHT22;5161;48.174;11.756;2023-11-19T11:29:03;12.70;99.90
10233;DHT22;5161;48.174;11.756;2023-11-19T11:37:46;12.70;99.90
10233;DHT22;5161;48.174;11.756;2023-11-19T11:40:17;12.70;99.90
10233;DHT22;5161;48.174;11.756;2023-11-19T11:42:46;12.60;99.90
10233;DHT22;5161;48.174;11.756;2023-11-19T11:45:15;12.70;99.90
10233;DHT22;5161;48.174;11.756;2023-11-19T11:50:18;12.70;99.90
10233;DHT22;5161;48.174;11.756;2023-11-19T11:55:36;12.80;99.90
10233;DHT22;5161;48.174;11.756;2023-11-19T11:58:03;12.90;99.90
10233;DHT22;5161;48.174;11.756;2023-11-19T12:03:01;13.00;99.90
10233;DHT22;5161;48.174;11.756;2023-11-19T12:05:27;13.00;99.90
10233;DHT22;5161;48.174;11.756;2023-11-19T12:08:00;13.00;99.90
10233;DHT22;5161;48.174;11.756;2023-11-19T12:10:29;13.00;99.90
10233;DHT22;5161;48.174;11.756;2023-11-19T12:13:05;13.00;99.90
10233;DHT22;5161;48.174;11.756;2023-11-19T12:15:32;13.10;99.90
10233;DHT22;5161;48.174;11.756;2023-11-19T12:17:58;13.40;99.90
10233;DHT22;5161;48.174;11.756;2023-11-19T12:20:25;13.60;99.90
10233;DHT22;5161;48.174;11.756;2023-11-19T12:22:52;13.80;99.90
10233;DHT22;5161;48.174;11.756;2023-11-19T12:25:18;14.00;99.90
10233;DHT22;5161;48.174;11.756;2023-11-19T12:27:48;14.30;99.90
10233;DHT22;5161;48.174;11.756;2023-11-19T12:30:24;14.50;99.90
10233;DHT22;5161;48.174;11.756;2023-11-19T12:32:51;14.70;99.90
10233;DHT22;5161;48.174;11.756;2023-11-19T12:35:19;14.70;98.50
10233;DHT22;5161;48.174;11.756;2023-11-19T12:37:45;14.90;99.80
10233;DHT22;5161;48.174;11.756;2023-11-19T12:40:17;15.10;99.80
10233;DHT22;5161;48.174;11.756;2023-11-19T12:42:44;15.00;97.30
10233;DHT22;5161;48.174;11.756;2023-11-19T12:45:09;14.80;97.40
10233;DHT22;5161;48.174;11.756;2023-11-19T12:47:39;14.60;97.70
10233;DHT22;5161;48.174;11.756;2023-11-19T12:50:06;14.60;98.10
10233;DHT22;5161;48.174;11.756;2023-11-19T12:52:32;14.50;97.30
10233;DHT22;5161;48.174;11.756;2023-11-19T12:54:58;14.50;97.80
10233;DHT22;5161;48.174;11.756;2023-11-19T12:57:40;14.80;97.70
10233;DHT22;5161;48.174;11.756;2023-11-19T13:00:07;14.70;96.80
10233;DHT22;5161;48.174;11.756;2023-11-19T13:02:46;14.50;96.40
10233;DHT22;5161;48.174;11.756;2023-11-19T13:05:25;14.30;96.20
10233;DHT22;5161;48.174;11.756;2023-11-19T13:08:01;14.20;97.00
10233;DHT22;5161;48.174;11.756;2023-11-19T13:10:27;14.10;97.00
10233;DHT22;5161;48.174;11.756;2023-11-19T13:13:07;14.10;97.20
10233;DHT22;5161;48.174;11.756;2023-11-19T13:15:34;14.00;97.10
10233;DHT22;5161;48.174;11.756;2023-11-19T13:18:00;13.90;97.00
10233;DHT22;5161;48.174;11.756;2023-11-19T13:20:26;13.90;97.20
10233;DHT22;5161;48.174;11.756;2023-11-19T13:25:21;13.90;96.80
10233;DHT22;5161;48.174;11.756;2023-11-19T13:27:47;13.80;96.90
10233;DHT22;5161;48.174;11.756;2023-11-19T13:30:13;13.70;96.60
10233;DHT22;5161;48.174;11.756;2023-11-19T13:32:39;13.70;96.50
10233;DHT22;5161;48.174;11.756;2023-11-19T13:35:05;13.70;97.00
10233;DHT22;5161;48.174;11.756;2023-11-19T13:37:31;13.70;97.00
10233;DHT22;5161;48.174;11.756;2023-11-19T13:39:56;13.70;97.00
10233;DHT22;5161;48.174;11.756;2023-11-19T13:42:22;13.70;96.70
10233;DHT22;5161;48.174;11.756;2023-11-19T13:44:47;13.70;96.70
10233;DHT22;5161;48.174;11.756;2023-11-19T13:47:13;13.70;96.70
10233;DHT22;5161;48.174;11.756;2023-11-19T13:49:39;13.60;96.80
10233;DHT22;5161;48.174;11.756;2023-11-19T13:52:05;13.70;97.00
10233;DHT22;5161;48.174;11.756;2023-11-19T13:54:31;13.70;97.00
10233;DHT22;5161;48.174;11.756;2023-11-19T13:56:56;13.60;96.80
10233;DHT22;5161;48.174;11.756;2023-11-19T13:59:26;13.60;96.90
10233;DHT22;5161;48.174;11.756;2023-11-19T14:01:52;13.60;97.00
10233;DHT22;5161;48.174;11.756;2023-11-19T14:04:18;13.50;96.90
10233;DHT22;5161;48.174;11.756;2023-11-19T14:06:45;13.50;97.00
10233;DHT22;5161;48.174;11.756;2023-11-19T14:09:11;13.50;96.90
10233;DHT22;5161;48.174;11.756;2023-11-19T14:11:38;13.50;97.10
10233;DHT22;5161;48.174;11.756;2023-11-19T14:14:03;13.50;97.20
10233;DHT22;5161;48.174;11.756;2023-11-19T14:16:29;13.50;97.00
10233;DHT22;5161;48.174;11.756;2023-11-19T14:18:55;13.50;96.80
10233;DHT22;5161;48.174;11.756;2023-11-19T14:21:20;13.50;96.80
10233;DHT22;5161;48.174;11.756;2023-11-19T14:23:46;13.50;97.10
10233;DHT22;5161;48.174;11.756;2023-11-19T14:26:12;13.50;96.90
10233;DHT22;5161;48.174;11.756;2023-11-19T14:28:37;13.50;97.10
10233;DHT22;5161;48.174;11.756;2023-11-19T14:31:04;13.50;97.00
10233;DHT22;5161;48.174;11.756;2023-11-19T14:33:30;13.50;97.00
10233;DHT22;5161;48.174;11.756;2023-11-19T14:35:56;13.50;97.10
10233;DHT22;5161;48.174;11.756;2023-11-19T14:38:21;13.50;97.30
10233;DHT22;5161;48.174;11.756;2023-11-19T14:40:47;13.60;97.20
10233;DHT22;5161;48.174;11.756;2023-11-19T14:43:14;13.50;97.10
10233;DHT22;5161;48.174;11.756;2023-11-19T14:45:41;13.50;97.20
10233;DHT22;5161;48.174;11.756;2023-11-19T14:48:06;13.50;97.30
10233;DHT22;5161;48.174;11.756;2023-11-19T14:50:32;13.50;97.30
10233;DHT22;5161;48.174;11.756;2023-11-19T14:52:57;13.50;97.30
10233;DHT22;5161;48.174;11.756;2023-11-19T14:55:23;13.50;97.40
10233;DHT22;5161;48.174;11.756;2023-11-19T14:57:49;13.50;97.30
10233;DHT22;5161;48.174;11.756;2023-11-19T15:00:16;13.50;97.40
10233;DHT22;5161;48.174;11.756;2023-11-19T15:02:41;13.50;97.20
10233;DHT22;5161;48.174;11.756;2023-11-19T15:05:10;13.50;97.10
10233;DHT22;5161;48.174;11.756;2023-11-19T15:07:37;13.40;97.00
10233;DHT22;5161;48.174;11.756;2023-11-19T15:10:03;13.40;97.10
10233;DHT22;5161;48.174;11.756;2023-11-19T15:12:29;13.40;97.10
10233;DHT22;5161;48.174;11.756;2023-11-19T15:14:55;13.40;97.00
10233;DHT22;5161;48.174;11.756;2023-11-19T15:17:21;13.40;97.00
10233;DHT22;5161;48.174;11.756;2023-11-19T15:19:47;13.40;96.80
10233;DHT22;5161;48.174;11.756;2023-11-19T15:22:13;13.40;97.10
10233;DHT22;5161;48.174;11.756;2023-11-19T15:24:38;13.30;97.00
10233;DHT22;5161;48.174;11.756;2023-11-19T15:27:07;13.30;96.80
10233;DHT22;5161;48.174;11.756;2023-11-19T15:29:34;13.20;96.90
10233;DHT22;5161;48.174;11.756;2023-11-19T15:32:00;13.30;96.80
10233;DHT22;5161;48.174;11.756;2023-11-19T15:34:25;13.30;97.00
10233;DHT22;5161;48.174;11.756;2023-11-19T15:36:51;13.20;96.80
10233;DHT22;5161;48.174;11.756;2023-11-19T15:39:16;13.20;96.70
10233;DHT22;5161;48.174;11.756;2023-11-19T15:41:42;13.20;96.50
10233;DHT22;5161;48.174;11.756;2023-11-19T15:44:07;13.20;96.60
10233;DHT22;5161;48.174;11.756;2023-11-19T15:46:33;13.20;96.70
10233;DHT22;5161;48.174;11.756;2023-11-19T15:48:59;13.20;96.50
10233;DHT22;5161;48.174;11.756;2023-11-19T15:51:24;13.10;96.50
10233;DHT22;5161;48.174;11.756;2023-11-19T15:53:50;13.00;96.50
10233;DHT22;5161;48.174;11.756;2023-11-19T15:56:16;13.10;96.60